Time;durP1;ratioP1;P1;durP2;ratioP2;P2;SDS_P1;SDS_P2;PMS_P1;PMS_P2;Temp;Humidity;BMP_temperature;BMP_pressure;BME280_temperature;BME280_humidity;BME280_pressure;Samples;Min_cycle;Max_cycle;Signal;HPM_P1;HPM_P2
2022/07/11 00:02:21;;;;;;;2.67;2.23;;;;;;;13.86;76.05;99330.28;4981498;28;20221;-49
2022/07/11 00:04:48;;;;;;;3.00;2.57;;;;;;;13.90;76.06;99333.44;4998940;28;20637;-49
2022/07/11 00:07:16;;;;;;;6.37;2.70;;;;;;;14.01;75.71;99325.28;5002526;28;20637;-49
2022/07/11 00:09:44;;;;;;;3.40;2.50;;;;;;;14.01;75.79;99330.53;4980643;28;20232;-49
2022/07/11 00:12:12;;;;;;;3.10;2.60;;;;;;;14.01;75.63;99318.22;5000084;28;20201;-49
2022/07/11 00:14:39;;;;;;;4.37;2.47;;;;;;;13.96;76.10;99317.88;4999539;28;20213;-49
2022/07/11 00:17:08;;;;;;;3.30;2.80;;;;;;;13.96;76.56;99314.44;5001256;28;20277;-49
2022/07/11 00:19:35;;;;;;;3.37;2.60;;;;;;;13.92;76.71;99318.34;4999254;28;20275;-50
2022/07/11 00:22:02;;;;;;;3.53;2.83;;;;;;;13.91;76.96;99312.25;4999345;28;20202;-49
2022/07/11 00:24:30;;;;;;;4.13;2.97;;;;;;;13.93;76.93;99310.31;5001054;28;20812;-49
2022/07/11 00:26:57;;;;;;;4.40;2.80;;;;;;;14.07;76.36;99301.03;4999131;28;20197;-49
2022/07/11 00:29:24;;;;;;;3.73;2.73;;;;;;;13.99;76.41;99312.31;4982413;28;20210;-49
2022/07/11 00:31:51;;;;;;;2.90;2.67;;;;;;;13.99;76.35;99301.00;4999131;28;20196;-49
2022/07/11 00:34:19;;;;;;;4.60;3.23;;;;;;;13.92;76.90;99303.41;4998335;28;20219;-49
2022/07/11 00:36:45;;;;;;;3.23;2.93;;;;;;;13.91;77.18;99301.78;4998941;28;20227;-49
2022/07/11 00:39:13;;;;;;;5.57;2.73;;;;;;;13.85;77.78;99307.63;5000193;28;20208;-50
2022/07/11 00:41:41;;;;;;;4.43;3.00;;;;;;;13.79;78.24;99303.00;4998929;28;20193;-50
2022/07/11 00:44:09;;;;;;;3.40;3.10;;;;;;;13.73;78.72;99296.59;4998812;28;20203;-49
2022/07/11 00:46:36;;;;;;;5.03;3.10;;;;;;;13.73;78.75;99292.19;4999590;28;20650;-49
2022/07/11 00:49:04;;;;;;;4.10;3.20;;;;;;;13.75;79.23;99291.22;4999690;28;20200;-49
2022/07/11 00:51:31;;;;;;;8.30;3.70;;;;;;;13.79;79.15;99290.72;5000587;28;20197;-49
2022/07/11 00:53:59;;;;;;;4.70;2.97;;;;;;;13.75;78.24;99297.25;4999309;28;20223;-49
2022/07/11 00:56:29;;;;;;;3.80;2.90;;;;;;;13.69;79.95;99292.63;5000389;28;20202;-49
2022/07/11 00:58:59;;;;;;;4.00;3.30;;;;;;;13.65;79.77;99299.16;4995292;28;20210;-49
2022/07/11 01:01:26;;;;;;;4.43;2.90;;;;;;;13.61;80.25;99297.81;4999876;28;20268;-49
2022/07/11 01:03:54;;;;;;;6.30;3.17;;;;;;;13.52;80.51;99289.91;4981286;28;20217;-49
2022/07/11 01:06:39;;;;;;;3.20;2.90;;;;;;;13.49;80.82;99292.00;4999207;28;20213;-49
2022/07/11 01:09:06;;;;;;;4.43;3.50;;;;;;;13.44;81.55;99292.47;4998459;28;20214;-49
2022/07/11 01:11:33;;;;;;;4.77;3.27;;;;;;;13.32;81.93;99286.63;4997882;28;20192;-49
2022/07/11 01:14:01;;;;;;;3.47;2.90;;;;;;;13.25;82.20;99283.75;4998397;28;20245;-49
2022/07/11 01:16:29;;;;;;;4.73;3.40;;;;;;;13.24;81.92;99281.31;4999233;28;20561;-49
2022/07/11 01:18:57;;;;;;;6.43;3.33;;;;;;;13.17;82.88;99286.34;4998586;28;20194;-49
2022/07/11 01:21:27;;;;;;;6.50;2.73;;;;;;;13.12;83.42;99283.34;4999266;28;20203;-49
2022/07/11 01:23:57;;;;;;;3.97;3.10;;;;;;;13.13;82.85;99279.75;4996375;28;20209;-49
2022/07/11 01:26:25;;;;;;;3.47;3.03;;;;;;;13.08;83.36;99274.94;5000158;28;20192;-49
2022/07/11 01:28:52;;;;;;;3.67;3.10;;;;;;;13.09;84.18;99279.22;5000736;28;20223;-49
2022/07/11 01:31:21;;;;;;;4.13;3.43;;;;;;;13.06;83.71;99269.03;4997803;28;20193;-49
2022/07/11 01:34:06;;;;;;;3.80;2.77;;;;;;;13.03;83.84;99271.16;4998128;28;20228;-49
2022/07/11 01:36:33;;;;;;;3.87;3.43;;;;;;;13.03;84.16;99269.34;4998639;28;20671;-49
2022/07/11 01:39:01;;;;;;;5.60;3.20;;;;;;;13.11;84.65;99264.16;4997021;28;20203;-49
2022/07/11 01:41:28;;;;;;;5.20;3.13;;;;;;;13.14;84.91;99263.88;4978924;28;20657;-49
2022/07/11 01:43:56;;;;;;;4.00;2.93;;;;;;;13.18;85.14;99268.81;4995797;28;20740;-51
2022/07/11 01:46:22;;;;;;;4.23;2.80;;;;;;;13.22;84.17;99262.28;4997549;28;20187;-49
2022/07/11 01:48:50;;;;;;;3.90;3.43;;;;;;;13.27;84.26;99260.03;4997063;28;20199;-49
2022/07/11 01:51:16;;;;;;;4.17;3.33;;;;;;;13.27;84.02;99260.84;4996600;28;20221;-49
2022/07/11 01:53:44;;;;;;;6.30;3.17;;;;;;;13.32;84.30;99257.78;4996975;28;20276;-49
2022/07/11 01:56:32;;;;;;;3.70;3.17;;;;;;;13.36;84.68;99266.97;4999162;28;20699;-49
2022/07/11 01:59:00;;;;;;;4.70;3.73;;;;;;;13.38;84.57;99256.31;4996261;28;20204;-49
2022/07/11 02:01:27;;;;;;;6.13;3.23;;;;;;;13.54;83.59;99253.03;4996850;28;20660;-49
2022/07/11 02:03:55;;;;;;;4.87;3.10;;;;;;;13.45;83.49;99260.00;4977370;28;20223;-49
2022/07/11 02:06:21;;;;;;;3.87;3.47;;;;;;;13.41;83.52;99256.88;4997288;28;20192;-49
2022/07/11 02:08:48;;;;;;;4.57;3.37;;;;;;;13.36;83.44;99258.28;4995527;28;20575;-49
2022/07/11 02:11:16;;;;;;;5.33;3.03;;;;;;;13.35;83.99;99259.25;4998417;28;20196;-49
2022/07/11 02:13:43;;;;;;;5.00;3.43;;;;;;;13.29;84.55;99258.06;4996244;28;20212;-49
2022/07/11 02:16:11;;;;;;;4.10;3.13;;;;;;;13.24;84.98;99255.09;4997481;28;20551;-49
2022/07/11 02:18:38;;;;;;;3.80;3.40;;;;;;;13.19;84.51;99257.34;4998042;28;20207;-49
2022/07/11 02:21:24;;;;;;;5.40;3.63;;;;;;;13.19;85.41;99257.34;4998820;28;20282;-49
2022/07/11 02:23:51;;;;;;;4.33;3.43;;;;;;;13.19;86.06;99259.97;4997568;28;20223;-49
2022/07/11 02:26:19;;;;;;;4.43;3.30;;;;;;;13.25;85.73;99254.13;4996920;28;20268;-49
2022/07/11 02:28:47;;;;;;;4.70;3.60;;;;;;;13.30;85.54;99249.25;4999451;28;20286;-49
2022/07/11 02:31:14;;;;;;;5.90;3.63;;;;;;;13.38;85.74;99246.69;4995668;28;20204;-49
2022/07/11 02:33:41;;;;;;;8.87;3.87;;;;;;;13.46;85.51;99253.78;4996729;28;20217;-49
2022/07/11 02:36:10;;;;;;;4.30;3.37;;;;;;;13.53;85.49;99254.00;4995951;28;20553;-49
2022/07/11 02:38:37;;;;;;;4.20;3.77;;;;;;;13.61;85.34;99261.09;4996574;28;20200;-48
2022/07/11 02:41:05;;;;;;;5.07;3.63;;;;;;;13.70;84.20;99257.53;4995913;28;20270;-49
2022/07/11 02:43:31;;;;;;;4.17;3.77;;;;;;;13.72;84.59;99259.06;4997750;28;20213;-50
2022/07/11 02:46:00;;;;;;;5.13;3.77;;;;;;;13.77;84.47;99247.28;4996461;28;20232;-49
2022/07/11 02:48:45;;;;;;;5.30;3.40;;;;;;;13.83;84.04;99249.25;4996699;28;20266;-49
2022/07/11 02:51:13;;;;;;;5.00;3.67;;;;;;;13.79;83.59;99255.78;4996752;28;20673;-49
2022/07/11 02:53:39;;;;;;;5.90;3.60;;;;;;;13.78;84.22;99246.28;4994440;28;20218;-49
2022/07/11 02:56:07;;;;;;;5.13;3.60;;;;;;;13.76;84.43;99250.88;4995495;28;20273;-49
2022/07/11 02:58:35;;;;;;;6.47;3.77;;;;;;;13.78;84.08;99251.53;4997360;28;20280;-49
2022/07/11 03:01:03;;;;;;;14.80;4.87;;;;;;;13.83;85.53;99255.31;4995771;28;20208;-49
2022/07/11 03:03:48;;;;;;;6.73;3.50;;;;;;;13.81;84.88;99254.66;4995547;28;20246;-49
2022/07/11 03:06:15;;;;;;;3.90;3.50;;;;;;;13.80;85.06;99258.25;4978447;28;20226;-49
2022/07/11 03:08:43;;;;;;;4.10;3.43;;;;;;;13.81;85.70;99256.44;4997288;28;20207;-49
2022/07/11 03:11:09;;;;;;;6.17;3.70;;;;;;;13.81;85.62;99259.91;4998343;28;20285;-49
2022/07/11 03:13:36;;;;;;;5.40;3.83;;;;;;;13.85;85.83;99252.53;5001587;28;20239;-49
2022/07/11 03:16:05;;;;;;;4.80;3.90;;;;;;;13.86;86.09;99255.00;4983126;28;20676;-49
2022/07/11 03:18:31;;;;;;;4.67;3.93;;;;;;;13.90;85.67;99257.31;5002273;28;20215;-49
2022/07/11 03:20:58;;;;;;;3.80;3.50;;;;;;;13.95;85.70;99257.69;4997444;28;20208;-49
2022/07/11 03:23:25;;;;;;;6.47;3.77;;;;;;;13.99;85.52;99259.00;4999994;28;20574;-49
2022/07/11 03:25:51;;;;;;;4.70;3.70;;;;;;;14.03;85.81;99255.91;5002253;28;21567;-49
2022/07/11 03:28:18;;;;;;;7.47;4.00;;;;;;;14.13;86.26;99257.56;5000208;28;20195;-49
2022/07/11 03:30:45;;;;;;;4.53;4.07;;;;;;;14.17;85.55;99262.38;5003018;28;20279;-49
2022/07/11 03:33:13;;;;;;;4.77;3.90;;;;;;;14.23;85.40;99257.47;4997683;28;20231;-49
2022/07/11 03:35:43;;;;;;;4.73;3.83;;;;;;;14.32;85.11;99252.06;5001659;28;20238;-49
2022/07/11 03:38:10;;;;;;;6.07;3.90;;;;;;;14.37;85.01;99262.09;4999930;28;20213;-49
2022/07/11 03:40:38;;;;;;;4.50;3.60;;;;;;;14.40;85.25;99253.88;5000520;28;20230;-49
2022/07/11 03:43:05;;;;;;;4.23;3.83;;;;;;;14.41;85.28;99252.91;4999178;28;20218;-49
2022/07/11 03:45:32;;;;;;;4.53;4.10;;;;;;;14.49;85.34;99259.16;4999043;28;20189;-49
2022/07/11 03:47:59;;;;;;;6.43;4.10;;;;;;;14.49;85.59;99260.00;4999552;28;20212;-49
2022/07/11 03:50:27;;;;;;;4.77;3.80;;;;;;;14.53;85.25;99266.56;5000589;28;20198;-48
2022/07/11 03:52:54;;;;;;;5.43;3.70;;;;;;;14.55;85.03;99256.72;4999406;28;20326;-49
2022/07/11 03:55:21;;;;;;;4.90;3.50;;;;;;;14.60;84.48;99253.59;4999699;28;20253;-49
2022/07/11 03:57:48;;;;;;;9.40;3.70;;;;;;;14.67;85.05;99257.22;4981122;28;20207;-49
2022/07/11 04:00:16;;;;;;;4.30;3.90;;;;;;;14.70;84.99;99251.69;4998856;28;20287;-49
2022/07/11 04:02:43;;;;;;;5.33;3.80;;;;;;;14.75;84.71;99256.47;4998726;28;20221;-49
2022/07/11 04:05:10;;;;;;;4.20;3.27;;;;;;;14.80;84.46;99255.97;4999924;28;20220;-49
2022/07/11 04:07:38;;;;;;;7.87;3.73;;;;;;;14.81;84.31;99257.63;4984037;28;20214;-49
2022/07/11 04:10:06;;;;;;;4.90;3.67;;;;;;;14.83;84.50;99253.03;4999383;28;20204;-49
2022/07/11 04:12:33;;;;;;;5.20;3.40;;;;;;;14.91;83.84;99248.56;4996975;28;20228;-49
2022/07/11 04:15:00;;;;;;;4.20;3.80;;;;;;;14.88;83.80;99248.91;4999973;28;20213;-49
2022/07/11 04:17:27;;;;;;;5.33;3.90;;;;;;;14.92;83.50;99249.41;4998537;28;20222;-49
2022/07/11 04:19:54;;;;;;;10.70;3.80;;;;;;;14.97;83.78;99243.66;4984491;28;20200;-49
2022/07/11 04:22:21;;;;;;;4.33;3.30;;;;;;;14.99;83.65;99252.19;4980336;28;20217;-49
2022/07/11 04:24:49;;;;;;;3.73;3.43;;;;;;;15.03;83.07;99249.09;4980465;28;20189;-49
2022/07/11 04:27:16;;;;;;;6.87;3.80;;;;;;;15.07;83.35;99240.88;5000241;28;20201;-49
2022/07/11 04:29:43;;;;;;;4.67;3.87;;;;;;;15.12;83.66;99244.63;4998958;28;20195;-49
2022/07/11 04:32:10;;;;;;;6.87;3.70;;;;;;;15.19;83.10;99237.72;4981248;28;20209;-49
2022/07/11 04:34:55;;;;;;;5.43;4.07;;;;;;;15.24;82.61;99237.25;4997578;28;20584;-49
2022/07/11 04:37:22;;;;;;;4.97;3.57;;;;;;;15.26;82.30;99234.44;4999142;28;20672;-49
2022/07/11 04:39:50;;;;;;;7.60;3.83;;;;;;;15.26;82.29;99231.81;4999334;28;20225;-49
2022/07/11 04:42:17;;;;;;;4.83;3.77;;;;;;;15.22;82.57;99241.00;5000576;28;20241;-49
2022/07/11 04:45:02;;;;;;;4.57;3.80;;;;;;;15.13;82.65;99245.47;5000309;28;20339;-49
2022/07/11 04:47:29;;;;;;;6.30;4.00;;;;;;;15.09;82.80;99234.44;4999881;28;20195;-49
2022/07/11 04:49:56;;;;;;;3.50;3.20;;;;;;;15.03;82.76;99246.47;4997361;28;20193;-49
2022/07/11 04:52:26;;;;;;;5.53;3.70;;;;;;;14.90;82.86;99246.94;4999550;28;20223;-49
2022/07/11 04:54:55;;;;;;;6.77;3.63;;;;;;;14.83;83.26;99251.22;4997678;28;20217;-49
2022/07/11 04:57:21;;;;;;;4.70;4.20;;;;;;;14.76;83.36;99247.59;4999521;28;20192;-49
2022/07/11 04:59:48;;;;;;;5.70;4.67;;;;;;;14.71;83.42;99253.31;4998703;28;20652;-49
2022/07/11 05:02:17;;;;;;;5.13;3.83;;;;;;;14.64;83.46;99257.56;4997728;28;20716;-49
2022/07/11 05:04:44;;;;;;;5.37;4.30;;;;;;;14.59;83.73;99251.97;4998251;28;20671;-49
2022/07/11 05:07:12;;;;;;;7.60;4.07;;;;;;;14.55;84.28;99248.84;5000710;28;20212;-49
2022/07/11 05:09:38;;;;;;;5.77;4.27;;;;;;;14.54;84.90;99254.25;4999605;28;20214;-49
2022/07/11 05:12:08;;;;;;;4.93;4.47;;;;;;;14.51;84.83;99247.53;4998158;28;20185;-49
2022/07/11 05:14:35;;;;;;;4.83;4.40;;;;;;;14.50;84.88;99255.56;4996018;28;20218;-49
2022/07/11 05:17:01;;;;;;;6.70;4.33;;;;;;;14.52;85.85;99254.44;4997267;28;20204;-50
2022/07/11 05:19:28;;;;;;;4.93;4.17;;;;;;;14.53;85.69;99250.81;4998886;28;20224;-49
2022/07/11 05:21:55;;;;;;;4.73;4.33;;;;;;;14.52;85.62;99256.22;4996620;28;20555;-49
2022/07/11 05:24:22;;;;;;;5.53;4.43;;;;;;;14.50;85.71;99256.38;4998200;28;20191;-49
2022/07/11 05:26:49;;;;;;;4.37;3.97;;;;;;;14.52;85.71;99259.69;4997012;28;20208;-49
2022/07/11 05:29:17;;;;;;;4.90;4.37;;;;;;;14.50;86.05;99256.38;4996186;28;20185;-49
2022/07/11 05:31:50;;;;;;;5.40;4.70;;;;;;;14.47;85.83;99256.72;4997673;28;20286;-48
2022/07/11 05:34:17;;;;;;;4.67;4.13;;;;;;;14.49;86.16;99256.53;4995101;28;20213;-49
2022/07/11 05:36:44;;;;;;;4.47;4.07;;;;;;;14.52;86.10;99250.97;4998980;28;20264;-49
2022/07/11 05:39:11;;;;;;;5.83;4.20;;;;;;;14.54;86.05;99251.63;4998979;28;20576;-49
2022/07/11 05:41:38;;;;;;;4.90;4.40;;;;;;;14.57;86.00;99259.19;4996499;28;20203;-51
2022/07/11 05:44:05;;;;;;;6.27;4.10;;;;;;;14.60;86.03;99257.06;4995224;28;20588;-49
2022/07/11 05:46:33;;;;;;;6.27;4.17;;;;;;;14.67;85.60;99261.69;4998624;28;20508;-49
2022/07/11 05:49:00;;;;;;;4.70;4.13;;;;;;;14.81;85.39;99260.25;4996523;28;20268;-49
2022/07/11 05:51:26;;;;;;;3.97;3.57;;;;;;;14.93;84.83;99261.56;4996916;28;20652;-49
2022/07/11 05:53:53;;;;;;;4.67;4.13;;;;;;;15.18;84.29;99264.22;4997675;28;20218;-49
2022/07/11 05:56:20;;;;;;;4.47;4.07;;;;;;;15.43;82.84;99266.78;4996937;28;20218;-49
2022/07/11 05:58:47;;;;;;;4.50;4.10;;;;;;;15.69;81.62;99263.97;4997004;28;20279;-49
2022/07/11 06:01:14;;;;;;;5.63;4.10;;;;;;;15.93;80.14;99265.72;4995595;28;20193;-49
2022/07/11 06:03:42;;;;;;;4.30;3.90;;;;;;;16.16;78.70;99266.78;4997037;28;20298;-50
2022/07/11 06:06:10;;;;;;;4.53;3.60;;;;;;;16.30;77.38;99271.34;4996006;28;20188;-49
2022/07/11 06:08:42;;;;;;;3.73;3.43;;;;;;;16.49;77.02;99277.19;4995564;28;20217;-49
2022/07/11 06:11:10;;;;;;;4.63;4.13;;;;;;;16.73;75.55;99270.94;4996701;28;20713;-51
2022/07/11 06:13:37;;;;;;;6.07;4.10;;;;;;;16.90;74.87;99276.94;4996187;28;20225;-49
2022/07/11 06:16:04;;;;;;;5.10;3.43;;;;;;;17.08;73.40;99276.66;4995595;28;20216;-49
2022/07/11 06:18:31;;;;;;;4.17;3.53;;;;;;;17.26;73.44;99275.53;4977952;28;20279;-49
2022/07/11 06:20:59;;;;;;;6.97;3.73;;;;;;;17.40;73.02;99287.94;4995880;28;20244;-49
2022/07/11 06:23:27;;;;;;;6.93;4.20;;;;;;;17.58;73.18;99281.47;4996227;28;20209;-49
2022/07/11 06:25:54;;;;;;;5.57;2.97;;;;;;;17.75;71.68;99282.13;4997207;28;20201;-50
2022/07/11 06:28:21;;;;;;;3.50;3.20;;;;;;;17.92;70.80;99276.69;4995572;28;20189;-49
2022/07/11 06:30:48;;;;;;;3.40;3.00;;;;;;;18.02;69.70;99279.06;4995335;28;20192;-49
2022/07/11 06:33:16;;;;;;;5.33;2.57;;;;;;;18.06;67.68;99283.78;4997974;28;20540;-49
2022/07/11 06:35:43;;;;;;;3.37;2.20;;;;;;;18.24;65.67;99278.13;4977097;28;20218;-49
2022/07/11 06:38:11;;;;;;;2.07;1.53;;;;;;;18.38;64.33;99279.09;4995042;28;20544;-49
2022/07/11 06:40:38;;;;;;;4.17;1.93;;;;;;;18.44;62.73;99280.19;4995390;28;20221;-49
2022/07/11 06:43:06;;;;;;;2.43;1.50;;;;;;;18.64;63.55;99283.03;4996410;28;20238;-49
2022/07/11 06:45:51;;;;;;;1.60;1.40;;;;;;;18.79;61.96;99277.69;4997091;28;20268;-49
2022/07/11 06:48:20;;;;;;;2.93;1.13;;;;;;;18.74;60.95;99277.44;4995124;28;20203;-49
2022/07/11 06:50:47;;;;;;;2.00;1.67;;;;;;;18.88;60.97;99281.06;4996975;28;20610;-49
2022/07/11 06:53:15;;;;;;;1.50;1.40;;;;;;;18.95;60.31;99284.59;4980508;28;20227;-49
2022/07/11 06:55:42;;;;;;;1.60;1.23;;;;;;;19.03;59.88;99279.19;4996957;28;20258;-49
2022/07/11 06:58:09;;;;;;;2.90;1.30;;;;;;;19.11;59.97;99280.88;4994668;28;20193;-49
2022/07/11 07:00:38;;;;;;;2.10;1.60;;;;;;;19.07;59.58;99273.53;4996838;28;20582;-49
2022/07/11 07:03:04;;;;;;;2.23;1.57;;;;;;;19.18;59.19;99275.63;4997248;28;20228;-49
2022/07/11 07:05:31;;;;;;;2.93;2.00;;;;;;;19.22;59.26;99279.53;4994153;28;20528;-48
2022/07/11 07:07:58;;;;;;;1.83;1.20;;;;;;;19.18;58.84;99275.63;4995106;28;20662;-49
2022/07/11 07:10:27;;;;;;;1.70;1.00;;;;;;;19.25;58.38;99273.06;4980357;28;22089;-49
2022/07/11 07:12:54;;;;;;;1.63;1.30;;;;;;;19.36;58.25;99280.47;4996670;28;20227;-49
2022/07/11 07:15:39;;;;;;;1.90;1.30;;;;;;;19.36;58.26;99277.00;4995296;28;20356;-49
2022/07/11 07:18:06;;;;;;;1.30;1.17;;;;;;;19.41;57.50;99278.06;4997354;28;20210;-49
2022/07/11 07:20:32;;;;;;;1.63;1.20;;;;;;;19.37;57.92;99276.81;4996637;28;20211;-49
2022/07/11 07:22:59;;;;;;;2.53;1.17;;;;;;;19.52;57.90;99276.69;4997318;28;20263;-49
2022/07/11 07:25:27;;;;;;;2.40;1.30;;;;;;;19.70;56.98;99273.56;4998770;28;20196;-49
2022/07/11 07:27:54;;;;;;;1.13;1.00;;;;;;;19.66;56.53;99271.50;4994854;28;20239;-49
2022/07/11 07:30:21;;;;;;;1.33;0.83;;;;;;;19.86;56.42;99276.91;4997358;28;20667;-49
2022/07/11 07:32:48;;;;;;;1.23;1.00;;;;;;;19.98;55.88;99278.03;4996982;28;20221;-49
2022/07/11 07:35:15;;;;;;;2.27;0.97;;;;;;;19.94;55.29;99268.03;4997437;28;20206;-49
2022/07/11 07:37:41;;;;;;;0.80;0.80;;;;;;;19.96;54.47;99274.75;4995391;28;20188;-49
2022/07/11 07:40:09;;;;;;;1.00;0.90;;;;;;;20.05;54.67;99276.22;4996448;28;20196;-49
2022/07/11 07:42:37;;;;;;;1.30;0.90;;;;;;;19.96;54.88;99273.94;5003652;28;20225;-50
2022/07/11 07:45:05;;;;;;;0.87;0.87;;;;;;;20.09;55.19;99273.19;4992726;28;20199;-50
2022/07/11 07:47:32;;;;;;;2.27;1.10;;;;;;;20.27;55.02;99262.03;4992738;28;20258;-50
2022/07/11 07:49:59;;;;;;;1.00;0.90;;;;;;;20.41;52.62;99268.22;5003541;28;20217;-49
2022/07/11 07:52:25;;;;;;;1.50;0.87;;;;;;;20.42;53.61;99264.53;5000978;28;20217;-48
2022/07/11 07:54:52;;;;;;;1.20;0.70;;;;;;;20.58;52.14;99263.34;4987126;28;20192;-50
2022/07/11 07:57:19;;;;;;;1.80;0.70;;;;;;;20.66;51.19;99265.81;4987551;28;20218;-49
2022/07/11 07:59:47;;;;;;;0.50;0.40;;;;;;;20.63;49.31;99268.88;4990380;28;20213;-49
2022/07/11 08:02:13;;;;;;;1.50;0.60;;;;;;;20.56;50.20;99268.03;4995266;28;20219;-49
2022/07/11 08:04:39;;;;;;;0.40;0.30;;;;;;;20.44;47.87;99276.56;5004488;28;20559;-49
2022/07/11 08:07:06;;;;;;;0.43;0.40;;;;;;;20.39;47.93;99275.53;4985690;28;20199;-51
2022/07/11 08:09:33;;;;;;;0.80;0.50;;;;;;;20.58;47.30;99271.31;5005184;28;20681;-49
2022/07/11 08:12:00;;;;;;;1.43;0.37;;;;;;;20.75;47.06;99274.38;5008163;28;20231;-49
2022/07/11 08:14:27;;;;;;;0.57;0.47;;;;;;;20.77;46.43;99264.38;5005511;28;20270;-49
2022/07/11 08:16:55;;;;;;;0.33;0.30;;;;;;;20.96;46.11;99269.97;4980856;28;20227;-48
2022/07/11 08:19:22;;;;;;;0.30;0.30;;;;;;;21.19;46.15;99274.88;5001180;28;20257;-50
2022/07/11 08:21:49;;;;;;;0.43;0.20;;;;;;;21.26;44.82;99265.06;4984185;28;20250;-49
2022/07/11 08:24:16;;;;;;;0.30;0.30;;;;;;;21.39;45.03;99277.53;5005700;28;20314;-49
2022/07/11 08:27:03;;;;;;;0.30;0.30;;;;;;;21.51;44.52;99267.91;4975772;28;20287;-49
2022/07/11 08:29:30;;;;;;;0.53;0.40;;;;;;;21.71;45.39;99283.03;4984109;28;20201;-51
2022/07/11 08:31:58;;;;;;;0.67;0.30;;;;;;;21.78;44.70;99264.41;5000388;28;20207;-49
2022/07/11 08:34:25;;;;;;;0.40;0.40;;;;;;;22.02;44.04;99270.88;5003789;28;20252;-49
2022/07/11 08:36:52;;;;;;;0.57;0.50;;;;;;;22.01;43.32;99265.78;4997910;28;20206;-50
2022/07/11 08:39:18;;;;;;;0.53;0.53;;;;;;;21.85;43.96;99262.56;5008805;28;20199;-50
2022/07/11 08:41:45;;;;;;;1.23;0.70;;;;;;;21.79;44.36;99268.69;4993287;28;20690;-49
2022/07/11 08:44:12;;;;;;;0.50;0.47;;;;;;;21.91;44.29;99266.19;4993409;28;20581;-50
2022/07/11 08:46:41;;;;;;;1.63;0.73;;;;;;;22.11;43.20;99263.50;4997585;28;20204;-49
2022/07/11 08:49:12;;;;;;;0.90;0.60;;;;;;;21.80;43.29;99267.66;5001683;28;20275;-49
2022/07/11 08:51:39;;;;;;;0.50;0.50;;;;;;;22.04;43.42;99271.47;5005342;28;20549;-49
2022/07/11 08:54:05;;;;;;;1.90;0.70;;;;;;;21.79;43.14;99263.38;5007583;28;20214;-50
2022/07/11 08:56:33;;;;;;;0.70;0.50;;;;;;;21.62;43.88;99253.19;5000264;28;20302;-50
2022/07/11 08:59:00;;;;;;;0.93;0.57;;;;;;;21.81;45.45;99251.50;5001701;28;20280;-50
2022/07/11 09:01:30;;;;;;;2.07;0.43;;;;;;;21.74;44.06;99257.88;5004081;28;20201;-50
2022/07/11 09:03:57;;;;;;;0.77;0.63;;;;;;;21.83;44.39;99253.97;4994000;28;20211;-50
2022/07/11 09:06:26;;;;;;;0.83;0.60;;;;;;;21.88;43.75;99246.19;5000592;28;20295;-50
2022/07/11 09:08:56;;;;;;;0.50;0.50;;;;;;;22.15;43.12;99247.91;4988655;28;20241;-51
2022/07/11 09:11:23;;;;;;;1.00;0.50;;;;;;;22.51;42.87;99249.19;5000212;28;20562;-50
2022/07/11 09:13:50;;;;;;;0.60;0.60;;;;;;;22.76;43.43;99245.78;5000548;28;20712;-50
2022/07/11 09:16:20;;;;;;;0.73;0.40;;;;;;;23.13;42.37;99243.22;5004420;28;20310;-50
2022/07/11 09:18:47;;;;;;;4.73;0.60;;;;;;;22.98;42.19;99239.03;4994897;28;20645;-50
2022/07/11 09:26:48;;;;;;;1.00;0.60;;;;;;;22.47;43.29;99264.75;4998684;28;20670;-50
2022/07/11 09:29:16;;;;;;;1.00;0.67;;;;;;;22.96;42.90;99272.25;5005196;28;20287;-50
2022/07/11 09:31:45;;;;;;;0.60;0.60;;;;;;;22.88;42.20;99256.53;5001774;28;20193;-52
2022/07/11 09:34:14;;;;;;;0.77;0.50;;;;;;;22.67;42.79;99261.16;4999928;28;20224;-50
2022/07/11 09:36:44;;;;;;;2.30;0.60;;;;;;;22.34;44.35;99259.47;5003188;28;20252;-50
2022/07/11 09:39:15;;;;;;;0.40;0.40;;;;;;;22.09;44.39;99266.34;5006983;28;20253;-49
2022/07/11 09:41:43;;;;;;;0.63;0.60;;;;;;;21.93;44.85;99256.19;4996824;28;20296;-49
2022/07/11 09:44:12;;;;;;;0.80;0.60;;;;;;;22.08;44.75;99258.59;4995965;28;20249;-49
2022/07/11 09:46:40;;;;;;;0.63;0.60;;;;;;;21.85;45.71;99256.41;5004311;28;20209;-49
2022/07/11 09:49:07;;;;;;;1.50;1.10;;;;;;;22.02;45.51;99252.25;4997301;28;20200;-49
2022/07/11 09:51:35;;;;;;;1.10;0.80;;;;;;;22.59;45.11;99261.41;5001432;28;20668;-49
2022/07/11 09:54:04;;;;;;;1.33;0.80;;;;;;;22.67;44.70;99253.19;4998524;28;20201;-49
2022/07/11 09:56:52;;;;;;;1.90;1.10;;;;;;;22.70;44.71;99253.59;4994634;28;20303;-49
2022/07/11 09:59:19;;;;;;;1.73;1.20;;;;;;;22.75;45.59;99252.13;5005133;28;20198;-49
2022/07/11 10:01:46;;;;;;;2.57;1.73;;;;;;;21.93;47.64;99248.19;4982750;28;20199;-49
2022/07/11 10:04:13;;;;;;;1.33;1.23;;;;;;;22.34;47.66;99244.34;4978771;28;20689;-49
2022/07/11 10:06:40;;;;;;;1.53;1.43;;;;;;;22.26;47.26;99247.25;4995448;28;20196;-49
2022/07/11 10:09:08;;;;;;;2.60;1.63;;;;;;;22.22;47.78;99249.53;4979759;28;20225;-49
2022/07/11 10:11:35;;;;;;;2.00;1.50;;;;;;;22.69;48.53;99253.78;5001360;28;20201;-49
2022/07/11 10:14:04;;;;;;;3.33;1.50;;;;;;;22.96;46.10;99248.28;5001694;28;20265;-49
2022/07/11 10:16:43;;;;;;;2.40;1.40;;;;;;;23.00;46.08;99262.78;4999441;28;20778;-49
2022/07/11 10:19:26;;;;;;;2.00;1.80;;;;;;;23.03;44.51;99259.69;5001057;28;20288;-49
2022/07/11 10:22:03;;;;;;;2.07;1.60;;;;;;;22.70;45.33;99256.25;4996623;28;20203;-49
2022/07/11 10:24:39;;;;;;;2.83;1.53;;;;;;;22.93;45.74;99267.34;4996908;28;20667;-49
2022/07/11 10:27:14;;;;;;;3.17;1.70;;;;;;;23.06;44.80;99261.09;4991361;28;20200;-49
2022/07/11 10:29:49;;;;;;;1.73;1.63;;;;;;;23.26;46.65;99252.97;4980950;28;20207;-49
2022/07/11 10:32:17;;;;;;;3.70;1.60;;;;;;;23.38;44.57;99253.06;5005744;28;20216;-49
2022/07/11 10:34:44;;;;;;;2.37;1.40;;;;;;;23.57;44.15;99243.25;4994411;28;20190;-48
2022/07/11 10:37:12;;;;;;;1.93;1.50;;;;;;;23.37;43.28;99251.44;5001541;28;20775;-49
2022/07/11 10:39:46;;;;;;;1.80;1.50;;;;;;;23.36;43.40;99242.63;4989419;28;20203;-49
2022/07/11 10:42:21;;;;;;;3.33;1.20;;;;;;;23.49;45.02;99249.69;4995623;28;20265;-49
2022/07/11 10:44:51;;;;;;;6.77;2.23;;;;;;;23.65;44.75;99242.16;4976195;28;20221;-51
2022/07/11 10:47:38;;;;;;;1.67;1.47;;;;;;;23.63;44.17;99239.69;4988777;28;20209;-49
2022/07/11 10:50:21;;;;;;;2.00;1.47;;;;;;;23.44;43.72;99237.00;4994335;28;20230;-49
2022/07/11 10:52:50;;;;;;;1.20;1.10;;;;;;;23.74;43.65;99249.63;4996086;28;20226;-49
2022/07/11 10:55:31;;;;;;;6.40;1.40;;;;;;;23.76;43.36;99236.09;5002409;28;20222;-49
2022/07/11 10:58:25;;;;;;;2.07;1.67;;;;;;;23.94;43.57;99245.91;4992138;28;20330;-50
2022/07/11 11:01:11;;;;;;;1.50;1.40;;;;;;;24.02;43.50;99248.31;5000794;28;20309;-50
2022/07/11 11:03:38;;;;;;;1.47;1.20;;;;;;;24.08;42.14;99251.13;4995919;28;20218;-49
2022/07/11 11:06:06;;;;;;;3.17;1.60;;;;;;;23.86;42.49;99244.34;4994412;28;20250;-49
2022/07/11 11:08:47;;;;;;;1.97;1.23;;;;;;;24.09;43.27;99242.06;4974351;28;20227;-49
2022/07/11 11:11:37;;;;;;;3.03;1.30;;;;;;;23.86;41.91;99244.34;4999175;28;20604;-49
2022/07/11 11:14:21;;;;;;;1.80;1.53;;;;;;;23.87;42.27;99242.50;4994919;28;20218;-49
2022/07/11 11:16:50;;;;;;;4.20;1.80;;;;;;;23.97;42.35;99242.81;4993080;28;20693;-49
2022/07/11 11:19:54;;;;;;;2.17;1.77;;;;;;;23.92;44.13;99253.31;4999292;28;20231;-49
2022/07/11 11:22:22;;;;;;;3.40;2.10;;;;;;;23.91;43.12;99241.03;5001170;28;20230;-49
2022/07/11 11:24:52;;;;;;;2.93;2.00;;;;;;;24.15;43.60;99251.84;4992884;28;20213;-50
2022/07/11 11:27:21;;;;;;;2.13;1.70;;;;;;;23.96;43.42;99249.16;5004936;28;20703;-49
2022/07/11 11:29:51;;;;;;;2.30;1.77;;;;;;;24.06;43.44;99234.53;4997374;28;20306;-49
2022/07/11 11:32:20;;;;;;;1.60;1.43;;;;;;;24.33;42.74;99221.63;4975738;28;20277;-49
2022/07/11 11:34:49;;;;;;;1.83;1.67;;;;;;;24.42;42.41;99224.78;4991758;28;20751;-49
2022/07/11 11:37:17;;;;;;;3.00;1.53;;;;;;;24.58;43.04;99218.00;4999901;28;20232;-50
2022/07/11 11:39:44;;;;;;;1.50;1.40;;;;;;;24.43;42.86;99224.56;5005680;28;20301;-50
2022/07/11 11:42:15;;;;;;;2.10;1.80;;;;;;;24.65;41.90;99218.72;5002341;28;20252;-50
2022/07/11 11:44:58;;;;;;;2.40;1.53;;;;;;;24.60;41.77;99227.41;5002534;28;20223;-50
2022/07/11 11:47:29;;;;;;;2.37;1.83;;;;;;;24.28;43.56;99224.16;5002688;28;20612;-50
2022/07/11 11:49:57;;;;;;;1.40;1.30;;;;;;;24.46;41.67;99221.47;4998565;28;20214;-49